createdAt,value
2018-06-25T00:02:20.982Z,12.30
2018-06-25T00:04:49.249Z,12.20
2018-06-25T00:07:17.498Z,12.10
2018-06-25T00:09:45.793Z,12.10
2018-06-25T00:12:14.086Z,12.00
2018-06-25T00:14:42.329Z,11.90
2018-06-25T00:17:10.591Z,11.80
2018-06-25T00:19:38.850Z,11.70
2018-06-25T00:22:07.165Z,11.70
2018-06-25T00:24:35.407Z,11.60
2018-06-25T00:27:03.690Z,11.50
2018-06-25T00:29:31.950Z,11.40
2018-06-25T00:32:00.218Z,11.40
2018-06-25T00:34:28.474Z,11.30
2018-06-25T00:36:56.736Z,11.40
2018-06-25T00:39:24.992Z,11.40
2018-06-25T00:41:53.278Z,11.40
2018-06-25T00:44:21.530Z,11.40
2018-06-25T00:46:49.795Z,11.40
2018-06-25T00:49:18.062Z,11.40
2018-06-25T00:51:46.342Z,11.40
2018-06-25T00:54:14.598Z,11.50
2018-06-25T00:56:42.877Z,11.60
2018-06-25T00:59:23.118Z,11.60
2018-06-25T01:01:51.611Z,11.60
2018-06-25T01:04:19.915Z,11.60
2018-06-25T01:06:48.195Z,11.60
2018-06-25T01:09:16.441Z,11.70
2018-06-25T01:11:44.742Z,11.70
2018-06-25T01:14:12.997Z,11.70
2018-06-25T01:19:09.299Z,11.70
2018-06-25T01:21:37.597Z,11.80
2018-06-25T01:24:05.869Z,11.70
2018-06-25T01:26:34.150Z,11.80
2018-06-25T01:29:02.418Z,11.80
2018-06-25T01:31:30.742Z,11.80
2018-06-25T01:33:59.002Z,11.80
2018-06-25T01:36:27.270Z,11.80
2018-06-25T01:38:55.537Z,11.80
2018-06-25T01:41:24.288Z,11.80
2018-06-25T01:43:52.573Z,11.80
2018-06-25T01:46:20.822Z,11.80
2018-06-25T01:48:49.108Z,11.80
2018-06-25T01:51:17.372Z,11.80
2018-06-25T01:53:45.637Z,11.80
2018-06-25T01:56:13.886Z,11.80
2018-06-25T01:58:42.154Z,11.80
2018-06-25T02:01:10.466Z,11.80
2018-06-25T02:03:38.741Z,11.70
2018-06-25T02:06:07.025Z,11.70
2018-06-25T02:08:35.333Z,11.80
2018-06-25T02:11:03.605Z,11.80
2018-06-25T02:13:31.873Z,11.70
2018-06-25T02:16:00.121Z,11.80
2018-06-25T02:18:28.401Z,11.70
2018-06-25T02:20:56.692Z,11.70
2018-06-25T02:23:24.962Z,11.70
2018-06-25T02:25:53.220Z,11.70
2018-06-25T02:28:21.494Z,11.60
2018-06-25T02:30:49.745Z,11.70
2018-06-25T02:33:18.022Z,11.60
2018-06-25T02:35:46.270Z,11.60
2018-06-25T02:38:14.548Z,11.60
2018-06-25T02:40:42.801Z,11.70
2018-06-25T02:43:11.090Z,11.60
2018-06-25T02:45:39.345Z,11.70
2018-06-25T02:48:07.621Z,11.70
2018-06-25T02:50:35.874Z,11.60
2018-06-25T02:53:04.142Z,11.60
2018-06-25T02:55:32.417Z,11.60
2018-06-25T02:58:00.682Z,11.60
2018-06-25T03:00:28.961Z,11.60
2018-06-25T03:02:57.221Z,11.60
2018-06-25T03:05:25.497Z,11.60
2018-06-25T03:07:53.758Z,11.70
2018-06-25T03:10:22.062Z,11.70
2018-06-25T03:12:50.333Z,11.60
2018-06-25T03:15:18.626Z,11.70
2018-06-25T03:17:46.890Z,11.70
2018-06-25T03:20:15.167Z,11.70
2018-06-25T03:22:43.412Z,11.70
2018-06-25T03:25:11.702Z,11.70
2018-06-25T03:27:39.949Z,11.60
2018-06-25T03:30:08.238Z,11.50
2018-06-25T03:32:36.485Z,11.50
2018-06-25T03:35:04.821Z,11.50
2018-06-25T03:37:33.070Z,11.60
2018-06-25T03:40:01.390Z,11.60
2018-06-25T03:42:29.646Z,11.70
2018-06-25T03:44:57.914Z,11.70
2018-06-25T03:47:26.165Z,11.70
2018-06-25T03:49:54.440Z,11.70
2018-06-25T03:52:22.693Z,11.70
2018-06-25T03:54:50.965Z,11.80
2018-06-25T03:57:19.233Z,11.80
2018-06-25T03:59:47.502Z,11.80
2018-06-25T04:02:15.762Z,11.80
2018-06-25T04:04:44.046Z,11.80
2018-06-25T04:07:12.370Z,11.90
2018-06-25T04:09:40.649Z,11.80
2018-06-25T04:12:08.987Z,11.80
2018-06-25T04:14:37.208Z,11.80
2018-06-25T04:17:05.496Z,11.90
2018-06-25T04:19:33.754Z,11.90
2018-06-25T04:22:02.036Z,12.00
2018-06-25T04:24:30.298Z,12.00
2018-06-25T04:26:58.569Z,12.00
2018-06-25T04:29:26.817Z,12.00
2018-06-25T04:31:55.083Z,12.10
2018-06-25T04:34:23.330Z,12.10
2018-06-25T04:36:51.596Z,12.10
2018-06-25T04:39:21.861Z,12.00
2018-06-25T04:41:50.133Z,12.10
2018-06-25T04:44:18.390Z,12.10
2018-06-25T04:46:46.658Z,12.10
2018-06-25T04:49:14.917Z,12.30
2018-06-25T04:51:43.202Z,12.30
2018-06-25T04:54:11.459Z,12.40
2018-06-25T04:56:39.807Z,12.40
2018-06-25T04:59:08.057Z,12.40
2018-06-25T05:01:39.426Z,12.40
2018-06-25T05:04:07.755Z,12.40
2018-06-25T05:06:36.031Z,12.40
2018-06-25T05:09:07.358Z,12.50
2018-06-25T05:11:35.661Z,12.70
2018-06-25T05:14:03.957Z,12.80
2018-06-25T05:16:32.235Z,12.90
2018-06-25T05:19:00.559Z,13.00
2018-06-25T05:21:28.857Z,13.00
2018-06-25T05:23:57.262Z,12.90
2018-06-25T05:26:25.803Z,13.00
2018-06-25T05:28:54.055Z,13.00
2018-06-25T05:31:22.458Z,13.00
2018-06-25T05:33:50.718Z,13.10
2018-06-25T05:36:19.030Z,13.10
2018-06-25T05:38:47.297Z,13.20
2018-06-25T05:41:15.559Z,13.20
2018-06-25T05:43:43.825Z,13.30
2018-06-25T05:46:12.081Z,13.30
2018-06-25T05:48:40.394Z,13.50
2018-06-25T05:51:08.668Z,13.50
2018-06-25T05:53:37.000Z,13.60
2018-06-25T05:56:05.449Z,13.60
2018-06-25T05:58:33.724Z,13.70
2018-06-25T06:01:01.977Z,13.80
2018-06-25T06:03:30.241Z,13.90
2018-06-25T06:05:58.514Z,14.00
2018-06-25T06:08:26.803Z,14.10
2018-06-25T06:10:55.079Z,14.20
2018-06-25T06:13:23.379Z,14.30
2018-06-25T06:15:51.714Z,14.30
2018-06-25T06:18:20.050Z,14.40
2018-06-25T06:20:48.360Z,14.50
2018-06-25T06:23:16.708Z,14.60
2018-06-25T06:25:44.994Z,14.60
2018-06-25T06:28:13.294Z,14.60
2018-06-25T06:30:41.670Z,14.60
2018-06-25T06:33:10.018Z,14.70
2018-06-25T06:35:38.286Z,14.70
2018-06-25T06:38:06.589Z,14.80
2018-06-25T06:40:34.849Z,14.90
2018-06-25T06:43:03.224Z,14.90
2018-06-25T06:45:31.493Z,15.10
2018-06-25T06:47:59.858Z,15.30
2018-06-25T06:50:28.122Z,15.50
2018-06-25T06:52:56.457Z,15.80
2018-06-25T06:55:24.849Z,15.90
2018-06-25T06:57:53.146Z,16.20
2018-06-25T07:00:21.426Z,16.10
2018-06-25T07:02:49.709Z,15.70
2018-06-25T07:05:17.989Z,15.60
2018-06-25T07:07:46.254Z,15.60
2018-06-25T07:10:14.608Z,15.70
2018-06-25T07:12:42.922Z,15.80
2018-06-25T07:15:11.226Z,15.80
2018-06-25T07:20:08.262Z,15.40
2018-06-25T07:22:36.545Z,15.60
2018-06-25T07:25:04.853Z,15.90
2018-06-25T07:27:33.146Z,16.40
2018-06-25T07:30:01.548Z,16.60
2018-06-25T07:32:29.830Z,16.90
2018-06-25T07:34:58.201Z,17.10
2018-06-25T07:37:26.570Z,17.10
2018-06-25T07:39:54.833Z,17.00
2018-06-25T07:44:51.158Z,16.70
2018-06-25T07:47:19.590Z,16.90
2018-06-25T07:49:47.748Z,17.10
2018-06-25T07:52:16.005Z,17.10
2018-06-25T07:54:44.268Z,17.10
2018-06-25T07:57:12.530Z,17.20
2018-06-25T07:59:40.822Z,17.50
2018-06-25T08:02:09.105Z,17.70
2018-06-25T08:04:37.387Z,18.10
2018-06-25T08:07:05.793Z,18.60
2018-06-25T08:09:34.059Z,18.60
2018-06-25T08:12:02.333Z,18.30
2018-06-25T08:14:30.609Z,18.30
2018-06-25T08:16:58.898Z,18.20
2018-06-25T08:19:27.228Z,18.30
2018-06-25T08:21:55.535Z,18.30
2018-06-25T08:24:23.794Z,18.20
2018-06-25T08:26:52.082Z,18.30
2018-06-25T08:29:20.352Z,18.70
2018-06-25T08:31:48.622Z,18.40
2018-06-25T08:34:16.930Z,18.30
2018-06-25T08:36:45.157Z,18.20
2018-06-25T08:39:13.517Z,18.20
2018-06-25T08:41:42.029Z,18.50
2018-06-25T08:44:10.273Z,19.30
2018-06-25T08:46:38.835Z,19.60
2018-06-25T08:49:07.710Z,19.50
2018-06-25T08:51:36.023Z,19.90
2018-06-25T08:54:04.266Z,20.40
2018-06-25T08:56:32.548Z,20.70
2018-06-25T08:59:00.880Z,20.70
2018-06-25T09:01:29.126Z,20.60
2018-06-25T09:03:57.386Z,20.30
2018-06-25T09:06:25.663Z,20.00
2018-06-25T09:08:53.905Z,19.40
2018-06-25T09:11:22.216Z,19.30
2018-06-25T09:13:50.485Z,19.40
2018-06-25T09:16:18.754Z,19.60
2018-06-25T09:18:47.002Z,19.80
2018-06-25T09:23:43.293Z,20.00
2018-06-25T09:26:11.579Z,20.60
2018-06-25T09:28:39.834Z,21.10
2018-06-25T09:31:08.134Z,20.90
2018-06-25T09:33:36.425Z,20.70
2018-06-25T09:38:32.710Z,20.30
2018-06-25T09:41:01.086Z,20.50
2018-06-25T09:45:57.292Z,20.80
2018-06-25T09:48:25.585Z,20.70
2018-06-25T09:50:53.834Z,20.60
2018-06-25T09:55:50.154Z,19.90
2018-06-25T09:58:18.437Z,20.20
2018-06-25T10:00:52.008Z,20.20
2018-06-25T10:03:20.281Z,20.60
2018-06-25T10:05:48.541Z,21.20
2018-06-25T10:08:16.807Z,21.30
2018-06-25T10:10:45.059Z,21.20
2018-06-25T10:13:13.342Z,21.10
2018-06-25T10:15:41.590Z,20.70
2018-06-25T10:18:09.930Z,20.50
2018-06-25T10:20:38.173Z,20.60
2018-06-25T10:23:06.707Z,21.20
2018-06-25T10:25:34.957Z,21.50
2018-06-25T10:28:03.218Z,21.80
2018-06-25T10:30:31.473Z,21.70
2018-06-25T10:32:59.753Z,21.40
2018-06-25T10:35:28.010Z,21.70
2018-06-25T10:37:56.286Z,22.10
2018-06-25T10:40:24.545Z,22.20
2018-06-25T10:42:52.819Z,22.20
2018-06-25T10:45:21.076Z,21.90
2018-06-25T10:47:49.365Z,22.00
2018-06-25T10:50:17.631Z,22.10
2018-06-25T10:52:45.925Z,22.10
2018-06-25T10:55:14.216Z,22.30
2018-06-25T10:57:42.515Z,22.10
2018-06-25T11:00:11.059Z,19.40
2018-06-25T11:02:39.082Z,22.20
2018-06-25T11:05:07.405Z,22.50
2018-06-25T11:07:35.721Z,22.40
2018-06-25T11:10:03.986Z,22.30
2018-06-25T11:12:32.260Z,22.10
2018-06-25T11:15:00.525Z,22.10
2018-06-25T11:17:28.785Z,22.30
2018-06-25T11:19:57.826Z,21.70
2018-06-25T11:22:26.105Z,21.50
2018-06-25T11:24:54.377Z,21.70
2018-06-25T11:27:22.694Z,21.80
2018-06-25T11:29:51.947Z,21.90
2018-06-25T11:32:20.237Z,22.00
2018-06-25T11:34:48.514Z,22.00
2018-06-25T11:37:16.778Z,22.40
2018-06-25T11:39:45.045Z,22.30
2018-06-25T11:42:13.320Z,22.50
2018-06-25T11:44:41.587Z,22.90
2018-06-25T11:47:09.857Z,23.00
2018-06-25T11:52:06.185Z,23.00
2018-06-25T11:54:34.454Z,22.60
2018-06-25T11:57:02.700Z,22.70
2018-06-25T11:59:30.965Z,22.90
2018-06-25T12:01:59.256Z,22.90
2018-06-25T12:04:27.509Z,22.70
2018-06-25T12:06:55.759Z,23.00
2018-06-25T12:09:24.031Z,23.50
2018-06-25T12:14:20.318Z,23.60
2018-06-25T12:16:48.597Z,23.40
2018-06-25T12:19:16.857Z,23.50
2018-06-25T12:21:45.121Z,23.50
2018-06-25T12:24:13.381Z,23.70
2018-06-25T12:26:41.746Z,24.40
2018-06-25T12:29:10.016Z,24.30
2018-06-25T12:31:38.300Z,24.70
2018-06-25T12:34:06.562Z,24.70
2018-06-25T12:36:34.834Z,24.40
2018-06-25T12:39:03.146Z,23.70
2018-06-25T12:41:31.437Z,23.30
2018-06-25T12:43:59.782Z,22.80
2018-06-25T12:46:28.062Z,22.60
2018-06-25T12:48:56.343Z,22.70
2018-06-25T12:51:24.655Z,22.70
2018-06-25T12:53:53.057Z,22.50
2018-06-25T12:56:21.297Z,22.50
2018-06-25T12:58:49.545Z,22.50
2018-06-25T13:01:18.506Z,22.60
2018-06-25T13:03:46.809Z,22.80
2018-06-25T13:06:15.128Z,22.60
2018-06-25T13:08:43.574Z,22.80
2018-06-25T13:11:11.942Z,22.90
2018-06-25T13:13:40.191Z,22.60
2018-06-25T13:16:08.466Z,22.80
2018-06-25T13:18:36.723Z,22.90
2018-06-25T13:23:33.009Z,23.10
2018-06-25T13:26:01.292Z,23.40
2018-06-25T13:28:29.557Z,23.40
2018-06-25T13:30:57.892Z,23.30
2018-06-25T13:33:26.124Z,23.20
2018-06-25T13:35:54.405Z,23.10
2018-06-25T13:38:22.708Z,22.90
2018-06-25T13:40:50.978Z,22.90
2018-06-25T13:43:19.289Z,23.00
2018-06-25T13:45:47.529Z,23.30
2018-06-25T13:48:15.822Z,23.50
2018-06-25T13:50:44.057Z,24.00
2018-06-25T13:53:12.333Z,23.90
2018-06-25T13:55:40.589Z,23.50
2018-06-25T13:58:08.901Z,23.50
2018-06-25T14:00:37.162Z,23.50
2018-06-25T14:03:05.434Z,23.70
2018-06-25T14:05:33.696Z,24.30
2018-06-25T14:10:30.007Z,24.90
2018-06-25T14:12:58.293Z,25.10
2018-06-25T14:15:26.534Z,25.10
2018-06-25T14:17:54.821Z,24.90
2018-06-25T14:20:23.109Z,24.50
2018-06-25T14:22:51.385Z,24.20
2018-06-25T14:25:19.640Z,23.80
2018-06-25T14:28:51.177Z,23.70
2018-06-25T14:31:22.329Z,23.80
2018-06-25T14:34:23.609Z,23.50
2018-06-25T14:36:52.164Z,23.30
2018-06-25T14:39:20.438Z,23.30
2018-06-25T14:41:48.690Z,23.20
2018-06-25T14:44:16.978Z,23.00
2018-06-25T14:46:45.255Z,22.90
2018-06-25T14:49:13.541Z,22.90
2018-06-25T14:51:41.808Z,22.80
2018-06-25T14:54:10.070Z,22.80
2018-06-25T14:56:38.342Z,22.80
2018-06-25T14:59:06.677Z,22.70
2018-06-25T15:01:34.918Z,22.70
2018-06-25T15:04:03.185Z,22.70
2018-06-25T15:06:31.434Z,22.40
2018-06-25T15:11:27.818Z,21.90
2018-06-25T15:13:56.105Z,21.70
2018-06-25T15:16:24.370Z,21.50
2018-06-25T15:18:52.654Z,21.50
2018-06-25T15:21:20.905Z,21.50
2018-06-25T15:23:49.173Z,21.50
2018-06-25T15:28:45.473Z,21.70
2018-06-25T15:31:13.726Z,21.80
2018-06-25T15:36:10.116Z,21.90
2018-06-25T15:38:38.438Z,21.80
2018-06-25T15:41:06.721Z,21.70
2018-06-25T15:43:35.054Z,21.40
2018-06-25T15:46:03.360Z,21.20
2018-06-25T15:48:32.441Z,21.00
2018-06-25T15:51:00.714Z,20.90
2018-06-25T15:53:29.029Z,20.90
2018-06-25T15:55:57.327Z,20.90
2018-06-25T16:00:53.726Z,20.70
2018-06-25T16:03:21.997Z,20.70
2018-06-25T16:05:50.336Z,20.60
2018-06-25T16:08:18.778Z,20.50
2018-06-25T16:13:15.578Z,20.20
2018-06-25T16:15:44.005Z,20.20
2018-06-25T16:18:12.325Z,20.10
2018-06-25T16:20:40.607Z,20.00
2018-06-25T16:23:08.902Z,19.80
2018-06-25T16:25:38.022Z,19.70
2018-06-25T16:30:34.393Z,19.50
2018-06-25T16:33:02.642Z,19.40
2018-06-25T16:35:30.921Z,19.40
2018-06-25T16:37:59.254Z,19.40
2018-06-25T16:42:55.601Z,19.50
2018-06-25T16:45:31.020Z,19.50
2018-06-25T16:47:59.450Z,19.60
2018-06-25T16:50:27.738Z,19.60
2018-06-25T16:52:56.022Z,19.60
2018-06-25T16:55:24.577Z,19.60
2018-06-25T16:57:52.853Z,19.70
2018-06-25T17:00:21.201Z,19.80
2018-06-25T17:02:49.465Z,19.80
2018-06-25T17:05:17.775Z,19.80
2018-06-25T17:07:46.189Z,19.70
2018-06-25T17:10:14.483Z,19.60
2018-06-25T17:12:42.794Z,19.40
2018-06-25T17:15:11.110Z,19.40
2018-06-25T17:17:39.433Z,19.40
2018-06-25T17:20:07.743Z,19.40
2018-06-25T17:22:44.012Z,19.40
2018-06-25T17:25:12.351Z,19.40
2018-06-25T17:27:40.786Z,19.40
2018-06-25T17:30:09.094Z,19.40
2018-06-25T17:32:37.390Z,19.40
2018-06-25T17:35:05.717Z,19.40
2018-06-25T17:37:34.010Z,19.40
2018-06-25T17:40:02.292Z,19.60
2018-06-25T17:42:30.570Z,19.80
2018-06-25T17:44:58.838Z,20.10
2018-06-25T17:47:27.113Z,20.30
2018-06-25T17:49:55.474Z,20.60
2018-06-25T17:52:23.785Z,20.80
2018-06-25T17:54:52.053Z,21.20
2018-06-25T17:57:20.396Z,21.50
2018-06-25T17:59:51.450Z,21.70
2018-06-25T18:02:27.123Z,21.90
2018-06-25T18:04:55.469Z,22.00
2018-06-25T18:07:23.749Z,22.00
2018-06-25T18:09:51.997Z,21.90
2018-06-25T18:12:20.641Z,21.80
2018-06-25T18:14:48.903Z,21.70
2018-06-25T18:17:17.195Z,21.60
2018-06-25T18:19:45.470Z,21.60
2018-06-25T18:22:13.763Z,21.50
2018-06-25T18:24:42.107Z,21.30
2018-06-25T18:27:10.415Z,21.10
2018-06-25T18:29:38.809Z,20.90
2018-06-25T18:32:07.073Z,20.80
2018-06-25T18:37:03.711Z,20.20
2018-06-25T18:39:32.065Z,20.10
2018-06-25T18:42:18.542Z,19.90
2018-06-25T18:44:47.340Z,19.70
2018-06-25T18:47:16.087Z,19.40
2018-06-25T18:49:44.397Z,19.20
2018-06-25T18:52:12.925Z,19.10
2018-06-25T18:54:41.225Z,18.90
2018-06-25T18:57:09.543Z,18.60
2018-06-25T18:59:38.645Z,18.40
2018-06-25T19:02:06.965Z,18.20
2018-06-25T19:04:35.324Z,18.10
2018-06-25T19:07:03.802Z,17.90
2018-06-25T19:09:32.082Z,17.70
2018-06-25T19:12:00.349Z,17.60
2018-06-25T19:14:28.690Z,17.40
2018-06-25T19:16:59.041Z,17.40
2018-06-25T19:19:27.899Z,17.40
2018-06-25T19:21:56.316Z,17.40
2018-06-25T19:24:24.619Z,17.20
2018-06-25T19:26:53.139Z,17.10
2018-06-25T19:29:29.137Z,16.90
2018-06-25T19:34:34.407Z,16.70
2018-06-25T19:37:02.832Z,16.50
2018-06-25T19:39:31.177Z,16.40
2018-06-25T19:41:59.735Z,16.30
2018-06-25T19:44:28.030Z,16.10
2018-06-25T19:46:56.386Z,16.00
2018-06-25T19:49:24.994Z,15.80
2018-06-25T19:51:53.295Z,15.70
2018-06-25T19:54:21.596Z,15.60
2018-06-25T19:56:55.659Z,15.50
2018-06-25T19:59:24.023Z,15.40
2018-06-25T20:01:52.314Z,15.30
2018-06-25T20:04:20.590Z,15.30
2018-06-25T20:06:48.858Z,15.30
2018-06-25T20:09:19.299Z,15.30
2018-06-25T20:11:47.637Z,15.30
2018-06-25T20:14:15.941Z,15.30
2018-06-25T20:16:44.764Z,15.20
2018-06-25T20:19:13.006Z,15.20
2018-06-25T20:21:41.269Z,15.10
2018-06-25T20:24:09.521Z,15.00
2018-06-25T20:26:37.793Z,14.90
2018-06-25T20:29:06.144Z,14.70
2018-06-25T20:36:30.600Z,14.50
2018-06-25T20:38:58.895Z,14.50
2018-06-25T20:41:27.186Z,14.40
2018-06-25T20:43:55.434Z,14.50
2018-06-25T20:46:23.727Z,14.30
2018-06-25T20:48:52.102Z,14.20
2018-06-25T20:51:20.437Z,14.10
2018-06-25T20:53:48.693Z,14.00
2018-06-25T20:56:16.970Z,13.90
2018-06-25T20:58:45.227Z,12.90
2018-06-25T21:01:13.517Z,13.80
2018-06-25T21:03:41.782Z,13.80
2018-06-25T21:06:10.058Z,13.70
2018-06-25T21:08:38.521Z,13.60
2018-06-25T21:11:07.110Z,13.60
2018-06-25T21:13:35.451Z,13.60
2018-06-25T21:16:03.746Z,13.50
2018-06-25T21:18:32.027Z,13.40
2018-06-25T21:28:24.550Z,13.10
2018-06-25T21:33:20.901Z,13.00
2018-06-25T21:35:49.238Z,13.00
2018-06-25T21:38:17.461Z,13.00
2018-06-25T21:40:45.734Z,13.00
2018-06-25T21:43:14.019Z,13.00
2018-06-25T21:45:42.269Z,13.00
2018-06-25T21:48:10.553Z,12.90
2018-06-25T21:50:38.801Z,12.90
2018-06-25T21:55:35.081Z,12.90
2018-06-25T22:00:42.986Z,12.80
2018-06-25T22:03:11.350Z,12.80
2018-06-25T22:05:39.607Z,12.70
2018-06-25T22:08:07.898Z,12.70
2018-06-25T22:10:36.157Z,12.70
2018-06-25T22:13:04.754Z,12.70
2018-06-25T22:15:33.043Z,12.70
2018-06-25T22:18:01.554Z,12.60
2018-06-25T22:20:29.814Z,12.60
2018-06-25T22:22:58.094Z,12.70
2018-06-25T22:25:26.410Z,12.70
2018-06-25T22:27:54.747Z,12.70
2018-06-25T22:30:23.278Z,12.70
2018-06-25T22:32:51.537Z,12.70
2018-06-25T22:35:19.822Z,12.60
2018-06-25T22:37:48.450Z,12.60
2018-06-25T22:40:16.886Z,12.60
2018-06-25T22:42:45.133Z,12.70
2018-06-25T22:45:13.594Z,12.60
2018-06-25T22:47:41.847Z,12.60
2018-06-25T22:50:10.130Z,12.60
2018-06-25T22:52:38.439Z,12.60
2018-06-25T22:55:06.994Z,12.60
2018-06-25T22:57:35.249Z,12.60
2018-06-25T23:00:03.650Z,12.60
2018-06-25T23:02:31.926Z,12.60
2018-06-25T23:05:00.204Z,12.60
2018-06-25T23:07:28.529Z,12.60
2018-06-25T23:09:56.806Z,12.60
2018-06-25T23:12:25.110Z,12.60
2018-06-25T23:14:53.377Z,12.60
2018-06-25T23:17:21.633Z,12.60
2018-06-25T23:19:49.910Z,12.50
2018-06-25T23:22:18.160Z,12.50
2018-06-25T23:24:46.449Z,12.50
2018-06-25T23:27:14.706Z,12.50
2018-06-25T23:29:42.973Z,12.70
2018-06-25T23:32:11.344Z,12.90
2018-06-25T23:34:39.694Z,12.90
2018-06-25T23:37:07.950Z,13.00
2018-06-25T23:39:36.225Z,13.10
2018-06-25T23:42:04.478Z,13.20
2018-06-25T23:44:32.757Z,13.20
2018-06-25T23:47:01.045Z,13.10
2018-06-25T23:49:29.305Z,13.10
2018-06-25T23:51:57.591Z,13.00
2018-06-25T23:54:25.842Z,13.10
2018-06-25T23:56:54.154Z,13.00
2018-06-25T23:59:22.422Z,13.00
